Time;durP1;ratioP1;P1;durP2;ratioP2;P2;SDS_P1;SDS_P2;PMS_P1;PMS_P2;Temp;Humidity;BMP_temperature;BMP_pressure;BME280_temperature;BME280_humidity;BME280_pressure;Samples;Min_cycle;Max_cycle;Signal;HPM_P1;HPM_P2
2022/07/12 00:00:50;;;;;;;0.20;0.20;;;16.60;99.90;;;;;;5072122;28;20181;-79
2022/07/12 00:03:15;;;;;;;0.30;0.30;;;16.60;99.90;;;;;;5052677;28;20260;-79
2022/07/12 00:05:41;;;;;;;0.40;0.40;;;16.60;99.90;;;;;;5074206;28;20213;-79
2022/07/12 00:08:07;;;;;;;0.47;0.30;;;16.60;99.90;;;;;;5070045;28;20212;-80
2022/07/12 00:10:32;;;;;;;0.20;0.20;;;16.50;99.90;;;;;;5054685;28;20195;-79
2022/07/12 00:12:58;;;;;;;0.30;0.30;;;16.50;99.90;;;;;;5070479;28;20185;-79
2022/07/12 00:15:24;;;;;;;0.17;0.17;;;16.40;99.90;;;;;;5069844;28;20212;-79
2022/07/12 00:17:50;;;;;;;0.20;0.20;;;16.30;99.90;;;;;;5072003;28;20236;-79
2022/07/12 00:20:16;;;;;;;0.20;0.20;;;16.30;99.90;;;;;;5077347;28;20289;-79
2022/07/12 00:22:41;;;;;;;0.20;0.20;;;16.30;99.90;;;;;;5068031;28;20658;-78
2022/07/12 00:25:07;;;;;;;0.40;0.40;;;16.30;99.90;;;;;;5060075;28;20180;-78
2022/07/12 00:27:33;;;;;;;0.20;0.20;;;16.40;99.90;;;;;;5078931;28;20628;-79
2022/07/12 00:29:59;;;;;;;0.30;0.30;;;16.30;99.90;;;;;;5071526;28;20187;-79
2022/07/12 00:32:24;;;;;;;0.40;0.40;;;16.10;99.90;;;;;;5079371;28;20183;-80
2022/07/12 00:34:50;;;;;;;0.27;0.23;;;16.00;99.90;;;;;;5060832;28;20682;-79
2022/07/12 00:37:15;;;;;;;0.30;0.30;;;16.00;99.90;;;;;;5058304;28;20208;-79
2022/07/12 00:39:41;;;;;;;0.17;0.17;;;16.00;99.90;;;;;;5075037;28;20547;-79
2022/07/12 00:42:06;;;;;;;0.20;0.20;;;15.90;99.90;;;;;;5076649;28;20213;-79
2022/07/12 00:44:33;;;;;;;1.20;0.83;;;15.90;99.90;;;;;;5076522;28;20199;-79
2022/07/12 00:47:02;;;;;;;0.30;0.30;;;15.90;99.90;;;;;;5060038;28;20862;-79
2022/07/12 00:49:29;;;;;;;0.20;0.20;;;15.80;99.90;;;;;;5076010;28;20188;-79
2022/07/12 00:51:55;;;;;;;0.27;0.20;;;15.80;99.90;;;;;;5089500;28;20388;-79
2022/07/12 00:54:20;;;;;;;0.10;0.10;;;15.80;99.90;;;;;;5073436;28;20196;-79
2022/07/12 00:56:47;;;;;;;0.30;0.30;;;15.90;99.90;;;;;;5064223;28;20244;-79
2022/07/12 00:59:13;;;;;;;0.20;0.20;;;15.90;99.90;;;;;;5079477;28;20180;-79
2022/07/12 01:01:39;;;;;;;0.20;0.20;;;15.90;99.90;;;;;;5054596;28;20184;-79
2022/07/12 01:04:05;;;;;;;0.10;0.10;;;16.00;99.90;;;;;;5080744;28;20398;-79
2022/07/12 01:06:32;;;;;;;0.23;0.23;;;16.10;99.90;;;;;;5076156;28;20204;-80
2022/07/12 01:09:00;;;;;;;0.40;0.40;;;16.00;99.90;;;;;;5076201;28;20199;-79
2022/07/12 01:11:26;;;;;;;0.20;0.20;;;15.90;99.90;;;;;;5079267;28;20184;-79
2022/07/12 01:13:54;;;;;;;0.50;0.33;;;15.80;99.90;;;;;;5073714;28;20202;-80
2022/07/12 01:16:20;;;;;;;0.73;0.73;;;15.70;99.90;;;;;;5074209;28;20220;-79
2022/07/12 01:18:46;;;;;;;0.30;0.30;;;15.60;99.90;;;;;;5071936;28;20224;-79
2022/07/12 01:21:17;;;;;;;0.17;0.17;;;15.50;99.90;;;;;;5080923;28;20215;-80
2022/07/12 01:23:45;;;;;;;0.30;0.30;;;15.50;99.90;;;;;;5080582;28;20199;-80
2022/07/12 01:26:10;;;;;;;0.10;0.10;;;15.50;99.90;;;;;;5073649;28;20215;-81
2022/07/12 01:28:36;;;;;;;2.53;0.23;;;15.50;99.90;;;;;;5075886;28;20180;-80
2022/07/12 01:31:02;;;;;;;0.47;0.30;;;15.60;99.90;;;;;;5071280;28;20181;-81
2022/07/12 01:33:27;;;;;;;0.20;0.20;;;15.60;99.90;;;;;;5065744;28;20199;-80
2022/07/12 01:35:53;;;;;;;0.20;0.20;;;15.50;99.90;;;;;;5060239;28;20708;-81
2022/07/12 01:38:18;;;;;;;0.13;0.13;;;15.50;99.90;;;;;;5090791;28;20184;-79
2022/07/12 01:40:44;;;;;;;0.10;0.10;;;15.60;99.90;;;;;;5071829;28;20253;-80
2022/07/12 01:43:10;;;;;;;0.40;0.40;;;15.50;99.90;;;;;;5073108;28;20213;-80
2022/07/12 01:45:35;;;;;;;0.20;0.20;;;15.40;99.90;;;;;;5071847;28;20280;-80
2022/07/12 01:48:01;;;;;;;2.93;0.50;;;15.40;99.90;;;;;;5075675;28;20299;-80
2022/07/12 01:50:26;;;;;;;0.33;0.33;;;15.40;99.90;;;;;;5058320;28;20193;-80
2022/07/12 01:52:52;;;;;;;0.30;0.30;;;15.30;99.90;;;;;;5065627;28;20661;-80
2022/07/12 01:55:18;;;;;;;0.20;0.20;;;15.30;99.90;;;;;;5069648;28;20201;-79
2022/07/12 01:57:44;;;;;;;0.20;0.20;;;15.20;99.90;;;;;;5072319;28;20244;-81
2022/07/12 02:00:11;;;;;;;0.33;0.33;;;15.20;99.90;;;;;;5076970;28;20577;-81
2022/07/12 02:02:38;;;;;;;0.20;0.20;;;15.40;99.90;;;;;;5073075;28;20232;-79
2022/07/12 02:05:04;;;;;;;0.30;0.30;;;15.50;99.90;;;;;;5072191;28;20282;-80
2022/07/12 02:07:30;;;;;;;0.43;0.43;;;15.60;99.90;;;;;;5075585;28;20203;-81
2022/07/12 02:09:56;;;;;;;0.30;0.30;;;15.60;99.90;;;;;;5060170;28;20187;-80
2022/07/12 02:12:22;;;;;;;0.50;0.50;;;15.70;99.90;;;;;;5074159;28;20180;-80
2022/07/12 02:14:47;;;;;;;0.20;0.20;;;15.70;99.90;;;;;;5073694;28;20296;-79
2022/07/12 02:17:13;;;;;;;0.30;0.30;;;15.60;99.90;;;;;;5063786;28;20207;-79
2022/07/12 02:19:38;;;;;;;0.50;0.27;;;15.60;99.90;;;;;;5070100;28;20188;-80
2022/07/12 02:22:04;;;;;;;0.73;0.53;;;15.40;99.90;;;;;;5075367;28;20213;-80
2022/07/12 02:24:29;;;;;;;0.30;0.30;;;15.20;99.90;;;;;;5077610;28;20192;-82
2022/07/12 02:26:55;;;;;;;0.40;0.40;;;15.10;99.90;;;;;;5075188;28;20220;-79
2022/07/12 02:29:20;;;;;;;0.77;0.20;;;15.20;99.90;;;;;;5068148;28;20184;-80
2022/07/12 02:31:46;;;;;;;1.00;0.50;;;15.20;99.90;;;;;;5057315;28;20193;-79
2022/07/12 02:34:11;;;;;;;0.20;0.20;;;15.20;99.90;;;;;;5070073;28;20188;-80
2022/07/12 02:36:37;;;;;;;0.30;0.30;;;15.20;99.90;;;;;;5070502;28;20223;-80
2022/07/12 02:39:04;;;;;;;0.30;0.30;;;15.30;99.90;;;;;;5066908;28;20191;-80
2022/07/12 02:41:31;;;;;;;0.37;0.37;;;15.30;99.90;;;;;;5055095;28;20529;-79
2022/07/12 02:43:57;;;;;;;0.30;0.20;;;15.30;99.90;;;;;;5068744;28;20202;-80
2022/07/12 02:46:22;;;;;;;0.27;0.27;;;15.40;99.90;;;;;;5052634;28;20271;-79
2022/07/12 02:48:48;;;;;;;0.10;0.10;;;15.50;99.90;;;;;;5069157;28;20201;-79
2022/07/12 02:51:14;;;;;;;0.30;0.30;;;15.60;99.90;;;;;;5050300;28;20181;-79
2022/07/12 02:53:39;;;;;;;0.50;0.50;;;15.80;99.90;;;;;;5064504;28;20195;-79
2022/07/12 02:56:05;;;;;;;0.50;0.37;;;15.60;99.90;;;;;;5071257;28;20214;-79
2022/07/12 02:58:30;;;;;;;0.50;0.50;;;15.60;99.90;;;;;;5069662;28;20186;-79
2022/07/12 03:00:56;;;;;;;0.67;0.67;;;15.50;99.90;;;;;;5072867;28;20186;-79
2022/07/12 03:03:22;;;;;;;0.40;0.40;;;15.60;99.90;;;;;;5060911;28;20179;-80
2022/07/12 03:05:47;;;;;;;0.40;0.30;;;15.70;99.90;;;;;;5073332;28;20191;-79
2022/07/12 03:08:14;;;;;;;0.30;0.30;;;15.70;99.90;;;;;;5056985;28;20216;-79
2022/07/12 03:10:40;;;;;;;0.47;0.47;;;15.80;99.90;;;;;;5074513;28;20192;-79
2022/07/12 03:13:06;;;;;;;0.60;0.60;;;15.70;99.90;;;;;;5056808;28;20198;-79
2022/07/12 03:15:32;;;;;;;0.23;0.23;;;15.60;99.90;;;;;;5060400;28;20230;-79
2022/07/12 03:17:59;;;;;;;0.50;0.30;;;15.40;99.90;;;;;;5065447;28;20243;-79
2022/07/12 03:20:25;;;;;;;2.93;0.47;;;15.40;99.90;;;;;;5054663;28;20185;-79
2022/07/12 03:22:53;;;;;;;0.40;0.40;;;15.60;99.90;;;;;;5072289;28;20184;-79
2022/07/12 03:25:19;;;;;;;0.50;0.50;;;15.60;99.90;;;;;;5062775;28;20187;-79
2022/07/12 03:27:45;;;;;;;0.20;0.20;;;15.70;99.90;;;;;;5069832;28;20235;-79
2022/07/12 03:30:11;;;;;;;0.10;0.10;;;15.60;99.90;;;;;;5073928;28;20181;-79
2022/07/12 03:32:37;;;;;;;0.30;0.30;;;15.40;99.90;;;;;;5067801;28;20184;-79
2022/07/12 03:35:03;;;;;;;0.53;0.53;;;15.40;99.90;;;;;;5069651;28;20747;-79
2022/07/12 03:37:40;;;;;;;0.40;0.40;;;15.30;99.90;;;;;;5066481;28;20196;-79
2022/07/12 03:40:07;;;;;;;0.73;0.73;;;15.40;99.90;;;;;;5066445;28;20211;-79
2022/07/12 03:42:32;;;;;;;0.70;0.70;;;15.40;99.90;;;;;;5076753;28;20168;-79
2022/07/12 03:44:58;;;;;;;0.47;0.47;;;15.30;99.90;;;;;;5074271;28;20288;-79
2022/07/12 03:47:23;;;;;;;0.67;0.40;;;15.50;99.90;;;;;;5076839;28;20305;-79
2022/07/12 03:49:49;;;;;;;0.30;0.30;;;16.00;99.90;;;;;;5076119;28;20196;-79
2022/07/12 03:52:14;;;;;;;0.33;0.33;;;17.00;99.90;;;;;;5087882;28;20192;-79
2022/07/12 03:54:40;;;;;;;3.20;0.77;;;17.90;99.90;;;;;;5083262;28;20262;-79
2022/07/12 03:57:14;;;;;;;0.30;0.30;;;18.60;99.90;;;;;;5075117;28;20262;-79
2022/07/12 03:59:44;;;;;;;0.40;0.40;;;18.90;99.90;;;;;;5067729;28;20278;-79
2022/07/12 04:02:10;;;;;;;0.30;0.30;;;18.90;99.90;;;;;;5086277;28;20189;-79
2022/07/12 04:04:36;;;;;;;0.20;0.20;;;19.90;99.90;;;;;;5085126;28;20198;-79
2022/07/12 04:07:01;;;;;;;0.30;0.30;;;20.10;99.90;;;;;;5057008;28;20295;-79
2022/07/12 04:09:27;;;;;;;0.27;0.27;;;20.90;99.90;;;;;;5079760;28;20188;-79
2022/07/12 04:11:52;;;;;;;0.40;0.40;;;21.50;99.90;;;;;;5082177;28;20593;-79
2022/07/12 04:14:18;;;;;;;0.60;0.50;;;21.90;99.90;;;;;;5075188;28;20208;-79
2022/07/12 04:16:44;;;;;;;0.20;0.20;;;21.80;99.90;;;;;;5055104;28;20339;-80
2022/07/12 04:19:10;;;;;;;0.30;0.30;;;21.40;99.90;;;;;;5077800;28;20188;-79
2022/07/12 04:21:36;;;;;;;2.50;1.73;;;21.40;99.90;;;;;;5080342;28;20925;-79
2022/07/12 04:24:02;;;;;;;0.50;0.50;;;21.30;99.90;;;;;;5064998;28;20570;-79
2022/07/12 04:26:28;;;;;;;0.50;0.50;;;20.80;99.90;;;;;;5063122;28;20201;-79
2022/07/12 04:28:53;;;;;;;0.30;0.30;;;19.80;99.90;;;;;;5082570;28;20199;-79
2022/07/12 04:31:19;;;;;;;0.40;0.40;;;18.80;99.90;;;;;;5070753;28;20208;-79
2022/07/12 04:33:44;;;;;;;0.30;0.30;;;18.10;99.90;;;;;;5060431;28;20276;-79
2022/07/12 04:36:10;;;;;;;0.40;0.40;;;18.20;99.90;;;;;;5059545;28;20206;-79
2022/07/12 04:38:36;;;;;;;2.43;2.03;;;18.10;99.90;;;;;;5067862;28;20528;-80
2022/07/12 04:41:01;;;;;;;0.40;0.40;;;17.90;99.90;;;;;;5067470;28;20185;-79
2022/07/12 04:43:27;;;;;;;0.20;0.20;;;17.70;99.90;;;;;;5074491;28;20247;-79
2022/07/12 04:45:52;;;;;;;0.67;0.40;;;17.40;99.90;;;;;;5072504;28;20686;-79
2022/07/12 04:48:18;;;;;;;0.20;0.20;;;17.20;99.90;;;;;;5066212;28;20197;-79
2022/07/12 04:50:44;;;;;;;0.33;0.33;;;17.10;99.90;;;;;;5071888;28;20219;-80
2022/07/12 04:53:09;;;;;;;0.27;0.27;;;17.20;99.90;;;;;;5079119;28;21390;-79
2022/07/12 04:55:35;;;;;;;0.10;0.10;;;17.30;99.90;;;;;;5077125;28;20204;-79
2022/07/12 04:58:01;;;;;;;0.33;0.30;;;17.20;99.90;;;;;;5072088;28;20208;-79
2022/07/12 05:00:27;;;;;;;0.30;0.30;;;17.20;99.90;;;;;;5066776;28;20644;-80
2022/07/12 05:02:53;;;;;;;0.20;0.20;;;17.10;99.90;;;;;;5061867;28;20236;-80
2022/07/12 05:05:19;;;;;;;0.30;0.30;;;16.90;99.90;;;;;;5073606;28;20186;-79
2022/07/12 05:07:45;;;;;;;0.33;0.33;;;17.00;99.90;;;;;;5080210;28;20241;-79
2022/07/12 05:10:10;;;;;;;0.20;0.20;;;17.10;99.90;;;;;;5080300;28;20548;-79
2022/07/12 05:12:36;;;;;;;0.20;0.20;;;17.30;99.90;;;;;;5074318;28;20187;-79
2022/07/12 05:15:03;;;;;;;0.13;0.13;;;17.60;99.90;;;;;;5064314;28;20197;-79
2022/07/12 05:17:29;;;;;;;0.20;0.20;;;17.90;99.90;;;;;;5058390;28;20233;-79
2022/07/12 05:19:55;;;;;;;0.50;0.50;;;18.10;99.90;;;;;;5070312;28;20216;-79
2022/07/12 05:22:20;;;;;;;0.47;0.40;;;18.20;99.90;;;;;;5076451;28;20620;-79
2022/07/12 05:24:46;;;;;;;1.13;0.80;;;18.00;99.90;;;;;;5056496;28;20189;-79
2022/07/12 05:27:12;;;;;;;0.50;0.50;;;18.00;99.90;;;;;;5069607;28;20201;-80
2022/07/12 05:29:37;;;;;;;0.27;0.27;;;18.10;99.90;;;;;;5068811;28;20227;-79
2022/07/12 05:32:03;;;;;;;0.23;0.23;;;18.40;99.90;;;;;;5074927;28;20232;-79
2022/07/12 05:34:29;;;;;;;0.20;0.20;;;18.60;99.90;;;;;;5064070;28;20255;-79
2022/07/12 05:36:54;;;;;;;0.30;0.30;;;18.90;99.90;;;;;;5078229;28;20251;-79
2022/07/12 05:39:20;;;;;;;0.20;0.20;;;18.90;99.90;;;;;;5070156;28;20189;-79
2022/07/12 05:41:46;;;;;;;0.30;0.30;;;19.20;99.90;;;;;;5069632;28;20597;-79
2022/07/12 05:44:12;;;;;;;0.30;0.30;;;19.40;99.90;;;;;;5055373;28;20187;-79
2022/07/12 05:46:39;;;;;;;0.20;0.20;;;19.20;99.90;;;;;;5072741;28;20712;-79
2022/07/12 05:49:04;;;;;;;0.20;0.20;;;19.40;99.90;;;;;;5052903;28;20884;-79
2022/07/12 05:54:14;;;;;;;0.40;0.40;;;19.60;99.90;;;;;;5070333;28;20199;-79
2022/07/12 05:56:39;;;;;;;0.40;0.40;;;19.60;99.90;;;;;;5075865;28;20296;-79
2022/07/12 05:59:05;;;;;;;0.20;0.20;;;19.90;99.90;;;;;;5078213;28;20188;-80
2022/07/12 06:01:30;;;;;;;0.30;0.30;;;20.10;99.90;;;;;;5057004;28;20179;-79
2022/07/12 06:03:56;;;;;;;0.30;0.30;;;20.20;99.90;;;;;;5073723;28;20262;-79
2022/07/12 06:06:21;;;;;;;0.20;0.20;;;20.40;99.90;;;;;;5068695;28;20200;-79
2022/07/12 06:08:47;;;;;;;0.30;0.30;;;20.50;99.90;;;;;;5074154;28;21065;-79
2022/07/12 06:11:12;;;;;;;0.20;0.20;;;20.60;99.90;;;;;;5071812;28;20557;-79
2022/07/12 06:13:38;;;;;;;0.27;0.27;;;20.70;99.90;;;;;;5067061;28;20173;-79
2022/07/12 06:16:09;;;;;;;0.47;0.40;;;20.70;99.90;;;;;;5073572;28;20196;-80
2022/07/12 06:18:35;;;;;;;0.27;0.27;;;20.90;99.90;;;;;;5069126;28;20181;-79
2022/07/12 06:21:01;;;;;;;0.53;0.50;;;21.00;99.90;;;;;;5073946;28;20224;-80
2022/07/12 06:23:27;;;;;;;0.30;0.30;;;21.20;99.90;;;;;;5055494;28;20212;-79
2022/07/12 06:25:52;;;;;;;0.40;0.40;;;21.30;99.90;;;;;;5064835;28;20189;-79
2022/07/12 06:28:18;;;;;;;0.40;0.40;;;21.30;99.90;;;;;;5062843;28;20224;-79
2022/07/12 06:30:43;;;;;;;0.70;0.70;;;21.30;99.90;;;;;;5071748;28;20542;-82
2022/07/12 06:33:09;;;;;;;0.30;0.30;;;21.10;99.90;;;;;;5073702;28;20613;-79
2022/07/12 06:35:35;;;;;;;0.50;0.30;;;20.80;99.90;;;;;;5067467;28;20205;-80
2022/07/12 06:38:01;;;;;;;1.13;1.03;;;20.60;99.90;;;;;;5056349;28;20209;-79
2022/07/12 06:40:26;;;;;;;0.30;0.30;;;21.00;99.90;;;;;;5088445;28;20264;-80
2022/07/12 06:42:52;;;;;;;0.37;0.37;;;20.60;99.90;;;;;;5061786;28;20659;-79
2022/07/12 06:45:17;;;;;;;0.50;0.50;;;20.60;99.90;;;;;;5078732;28;20205;-80
2022/07/12 06:47:43;;;;;;;0.63;0.63;;;21.00;99.90;;;;;;5082748;28;20208;-82
2022/07/12 06:50:09;;;;;;;0.20;0.20;;;21.20;99.90;;;;;;5084832;28;20214;-79
2022/07/12 06:52:35;;;;;;;0.40;0.40;;;21.50;99.90;;;;;;5086061;28;20215;-79
2022/07/12 06:55:01;;;;;;;0.30;0.30;;;21.80;99.90;;;;;;5066837;28;20222;-80
2022/07/12 06:57:27;;;;;;;0.20;0.20;;;22.00;99.90;;;;;;5068541;28;20302;-80
2022/07/12 06:59:52;;;;;;;0.30;0.30;;;22.20;99.90;;;;;;5066749;28;20187;-80
2022/07/12 07:02:18;;;;;;;0.40;0.40;;;22.20;99.90;;;;;;5074175;28;20756;-79
2022/07/12 07:04:43;;;;;;;0.70;0.43;;;22.40;99.90;;;;;;5072630;28;20239;-80
2022/07/12 07:07:09;;;;;;;0.40;0.40;;;22.40;99.90;;;;;;5055680;28;20210;-80
2022/07/12 07:09:35;;;;;;;0.30;0.30;;;22.60;99.90;;;;;;5074149;28;20185;-80
2022/07/12 07:12:01;;;;;;;0.40;0.40;;;22.70;99.90;;;;;;5060211;28;20187;-80
2022/07/12 07:14:27;;;;;;;0.27;0.27;;;22.60;99.90;;;;;;5056405;28;20193;-79
2022/07/12 07:16:55;;;;;;;0.30;0.30;;;22.70;99.90;;;;;;5072644;28;20544;-79
2022/07/12 07:19:24;;;;;;;0.40;0.40;;;22.80;99.90;;;;;;5072340;28;20256;-80
2022/07/12 07:21:50;;;;;;;0.33;0.33;;;22.30;99.90;;;;;;5079492;28;20181;-79
2022/07/12 07:24:16;;;;;;;0.30;0.30;;;22.60;99.90;;;;;;5084033;28;20181;-80
2022/07/12 07:26:41;;;;;;;0.50;0.50;;;22.90;99.90;;;;;;5077698;28;20201;-80
2022/07/12 07:31:51;;;;;;;0.50;0.50;;;23.40;99.90;;;;;;5073790;28;20196;-80
2022/07/12 07:34:16;;;;;;;0.50;0.50;;;23.50;99.90;;;;;;5076289;28;20185;-80
2022/07/12 07:36:42;;;;;;;0.40;0.40;;;23.90;99.90;;;;;;5056142;28;20552;-80
2022/07/12 07:39:08;;;;;;;1.53;0.63;;;24.10;99.90;;;;;;5073798;28;20178;-80
2022/07/12 07:41:34;;;;;;;0.40;0.40;;;24.30;99.90;;;;;;5055248;28;20230;-80
2022/07/12 07:43:59;;;;;;;0.40;0.40;;;24.30;99.90;;;;;;5057869;28;20231;-80
2022/07/12 07:46:26;;;;;;;0.40;0.40;;;24.50;99.90;;;;;;5074671;28;20591;-81
2022/07/12 07:48:51;;;;;;;0.30;0.30;;;24.40;99.90;;;;;;5056830;28;20173;-80
2022/07/12 07:51:17;;;;;;;0.30;0.30;;;24.80;99.90;;;;;;5072607;28;20181;-80
2022/07/12 07:53:43;;;;;;;0.40;0.40;;;24.90;99.90;;;;;;5056682;28;20181;-80
2022/07/12 07:56:09;;;;;;;0.53;0.40;;;24.20;99.90;;;;;;5054872;28;20566;-80
2022/07/12 07:58:34;;;;;;;0.30;0.30;;;24.60;99.90;;;;;;5063601;28;20181;-80
2022/07/12 08:01:00;;;;;;;0.60;0.60;;;24.90;99.90;;;;;;5074862;28;20219;-80
2022/07/12 08:03:25;;;;;;;0.30;0.30;;;24.70;99.90;;;;;;5076487;28;20234;-80
2022/07/12 08:05:51;;;;;;;0.50;0.50;;;24.60;99.90;;;;;;5080645;28;20196;-82
2022/07/12 08:08:17;;;;;;;0.43;0.43;;;24.60;99.90;;;;;;5057628;28;20197;-81
2022/07/12 08:10:43;;;;;;;0.20;0.20;;;24.90;99.90;;;;;;5056967;28;20180;-80
2022/07/12 08:13:09;;;;;;;0.30;0.30;;;25.20;99.90;;;;;;5092228;28;20668;-79
2022/07/12 08:15:35;;;;;;;0.30;0.30;;;25.50;99.90;;;;;;5052752;28;20201;-80
2022/07/12 08:18:01;;;;;;;0.20;0.20;;;25.60;99.90;;;;;;5069665;28;20763;-81
2022/07/12 08:20:27;;;;;;;0.50;0.50;;;25.80;99.90;;;;;;5076409;28;20180;-81
2022/07/12 08:22:52;;;;;;;0.30;0.30;;;26.10;99.90;;;;;;5072060;28;20193;-80
2022/07/12 08:25:18;;;;;;;0.37;0.37;;;26.30;99.90;;;;;;5076571;28;20553;-81
2022/07/12 08:27:43;;;;;;;1.97;0.60;;;26.50;99.90;;;;;;5076029;28;20212;-82
2022/07/12 08:30:10;;;;;;;0.93;0.60;;;26.30;99.90;;;;;;5075158;28;20185;-80
2022/07/12 08:32:36;;;;;;;0.37;0.37;;;26.40;99.90;;;;;;5080024;28;20720;-81
2022/07/12 08:35:02;;;;;;;0.30;0.30;;;26.50;99.90;;;;;;5055498;28;20208;-82
2022/07/12 08:37:27;;;;;;;0.47;0.40;;;26.80;99.90;;;;;;5055460;28;20569;-81
2022/07/12 08:39:53;;;;;;;0.20;0.20;;;27.00;99.90;;;;;;5082903;28;20772;-81
2022/07/12 08:42:18;;;;;;;0.30;0.30;;;27.30;99.90;;;;;;5078232;28;20195;-80
2022/07/12 08:44:53;;;;;;;0.30;0.30;;;26.90;99.90;;;;;;5077568;28;20261;-81
2022/07/12 08:47:18;;;;;;;0.27;0.27;;;26.50;99.90;;;;;;5051339;28;20714;-79
2022/07/12 08:50:16;;;;;;;0.30;0.30;;;26.80;99.90;;;;;;5063350;28;20176;-80
2022/07/12 08:52:48;;;;;;;0.43;0.43;;;26.50;99.90;;;;;;5075660;28;20279;-79
2022/07/12 08:55:18;;;;;;;0.40;0.40;;;26.40;99.90;;;;;;5069953;28;20209;-79
2022/07/12 08:57:43;;;;;;;0.30;0.30;;;26.30;99.90;;;;;;5076723;28;20197;-78
2022/07/12 09:00:10;;;;;;;0.30;0.30;;;26.30;99.90;;;;;;5072762;28;20226;-79
2022/07/12 09:02:45;;;;;;;0.30;0.30;;;26.40;99.90;;;;;;5059714;28;20173;-79
2022/07/12 09:05:11;;;;;;;0.40;0.40;;;25.80;99.90;;;;;;5071175;28;20169;-79
2022/07/12 09:07:37;;;;;;;0.77;0.57;;;25.70;99.90;;;;;;5069868;28;20203;-79
2022/07/12 09:10:04;;;;;;;0.20;0.20;;;25.80;99.90;;;;;;5066647;28;20729;-79
2022/07/12 09:12:30;;;;;;;0.27;0.27;;;26.20;99.90;;;;;;5077726;28;20277;-79
2022/07/12 09:15:09;;;;;;;0.30;0.30;;;25.90;99.90;;;;;;5075710;28;20287;-79
2022/07/12 09:17:35;;;;;;;0.87;0.87;;;25.70;99.90;;;;;;5070702;28;20193;-80
2022/07/12 09:20:00;;;;;;;0.50;0.33;;;25.90;99.90;;;;;;5080026;28;20177;-79
2022/07/12 09:22:26;;;;;;;0.30;0.30;;;25.70;99.90;;;;;;5055128;28;20184;-79
2022/07/12 09:24:51;;;;;;;0.30;0.30;;;26.10;99.90;;;;;;5071663;28;20234;-79
2022/07/12 09:27:25;;;;;;;0.30;0.30;;;25.90;99.90;;;;;;5074377;28;20204;-79
2022/07/12 09:29:51;;;;;;;0.43;0.43;;;26.00;99.90;;;;;;5067438;28;20181;-79
2022/07/12 09:37:46;;;;;;;0.33;0.33;;;25.70;99.90;;;;;;5078782;28;20214;-79
2022/07/12 09:40:12;;;;;;;0.23;0.23;;;25.20;99.90;;;;;;5072698;28;20667;-79
2022/07/12 09:42:39;;;;;;;0.30;0.30;;;25.20;99.90;;;;;;5079300;28;20318;-80
2022/07/12 09:45:10;;;;;;;0.30;0.30;;;25.40;99.90;;;;;;5062906;28;20342;-79
2022/07/12 09:47:35;;;;;;;0.37;0.37;;;25.40;99.90;;;;;;5074343;28;20283;-79
2022/07/12 09:50:03;;;;;;;0.47;0.47;;;25.30;99.90;;;;;;5065814;28;20409;-79
2022/07/12 09:52:29;;;;;;;0.30;0.30;;;25.20;99.90;;;;;;5083642;28;20309;-80
2022/07/12 09:54:55;;;;;;;0.37;0.37;;;25.00;99.90;;;;;;5078678;28;20204;-79
2022/07/12 09:57:32;;;;;;;0.30;0.30;;;25.00;99.90;;;;;;5081465;28;20184;-79
2022/07/12 09:59:58;;;;;;;0.33;0.33;;;25.10;99.90;;;;;;5072748;28;20189;-80
2022/07/12 10:02:25;;;;;;;0.20;0.20;;;24.70;99.90;;;;;;5064284;28;20169;-79
2022/07/12 10:04:51;;;;;;;0.50;0.50;;;25.30;99.90;;;;;;5080740;28;20198;-79
2022/07/12 10:07:17;;;;;;;0.40;0.40;;;24.70;99.90;;;;;;5059213;28;20288;-79
2022/07/12 10:09:47;;;;;;;0.30;0.30;;;24.70;99.90;;;;;;5071491;28;20261;-79
2022/07/12 10:12:16;;;;;;;1.17;1.00;;;24.80;99.90;;;;;;5072906;28;20177;-79
2022/07/12 10:14:44;;;;;;;0.30;0.30;;;24.30;99.90;;;;;;5066534;28;20181;-80
2022/07/12 10:17:11;;;;;;;0.80;0.47;;;24.60;99.90;;;;;;5071529;28;20204;-79
2022/07/12 10:19:37;;;;;;;1.00;1.00;;;24.80;99.90;;;;;;5072658;28;20185;-80
2022/07/12 10:22:05;;;;;;;0.30;0.30;;;25.10;99.90;;;;;;5075140;28;20244;-79
2022/07/12 10:24:33;;;;;;;0.40;0.40;;;25.00;99.90;;;;;;5072110;28;20189;-79
2022/07/12 10:27:14;;;;;;;0.40;0.40;;;24.60;99.90;;;;;;5071954;28;20572;-79
2022/07/12 10:29:40;;;;;;;0.20;0.20;;;25.10;99.90;;;;;;5072246;28;20200;-79
2022/07/12 10:32:27;;;;;;;0.30;0.30;;;25.70;99.90;;;;;;5072226;28;20177;-79
2022/07/12 10:34:59;;;;;;;0.40;0.40;;;26.20;99.90;;;;;;5077151;28;20224;-79
2022/07/12 10:37:25;;;;;;;0.10;0.10;;;26.60;99.90;;;;;;5070479;28;20221;-79
2022/07/12 10:40:09;;;;;;;0.30;0.30;;;26.70;99.90;;;;;;5073508;28;20223;-81
2022/07/12 10:42:35;;;;;;;0.40;0.40;;;26.80;99.90;;;;;;5071808;28;20181;-79
2022/07/12 10:45:16;;;;;;;0.20;0.20;;;27.10;99.90;;;;;;5072433;28;20199;-79
2022/07/12 10:47:59;;;;;;;0.30;0.30;;;26.80;99.90;;;;;;5072289;28;20274;-79
2022/07/12 10:50:57;;;;;;;0.30;0.30;;;27.10;99.90;;;;;;5072099;28;20239;-79
2022/07/12 10:53:40;;;;;;;0.53;0.50;;;27.20;99.90;;;;;;5059749;28;20542;-79
2022/07/12 10:56:20;;;;;;;0.30;0.30;;;27.60;99.90;;;;;;5069533;28;20246;-80
2022/07/12 10:58:54;;;;;;;0.30;0.30;;;27.90;99.90;;;;;;5060280;28;20173;-81
2022/07/12 11:01:25;;;;;;;0.50;0.50;;;28.10;99.90;;;;;;5057790;28;20178;-80
2022/07/12 11:03:51;;;;;;;0.37;0.37;;;28.20;99.90;;;;;;5074398;28;20257;-81
2022/07/12 11:06:19;;;;;;;0.40;0.40;;;28.20;99.90;;;;;;5058038;28;20748;-79
2022/07/12 11:08:49;;;;;;;0.50;0.50;;;27.80;99.90;;;;;;5076331;28;20315;-80
2022/07/12 11:11:14;;;;;;;0.47;0.37;;;28.00;99.90;;;;;;5068123;28;20278;-80
2022/07/12 11:13:40;;;;;;;0.20;0.20;;;28.00;99.90;;;;;;5070889;28;20703;-80
2022/07/12 11:16:06;;;;;;;0.30;0.30;;;27.80;99.90;;;;;;5070053;28;20213;-81
2022/07/12 11:18:33;;;;;;;0.45;0.45;;;28.00;99.90;;;;;;5052581;28;20191;-81
2022/07/12 11:21:00;;;;;;;0.40;0.40;;;27.50;99.90;;;;;;5069346;28;20184;-80
2022/07/12 11:23:26;;;;;;;0.52;0.38;;;27.70;99.90;;;;;;5078824;28;20268;-81
2022/07/12 11:25:56;;;;;;;0.32;0.32;;;27.90;99.90;;;;;;5062324;28;20267;-81
2022/07/12 11:28:24;;;;;;;0.20;0.20;;;27.90;99.90;;;;;;5068481;28;20398;-80
2022/07/12 11:30:53;;;;;;;0.45;0.45;;;27.80;99.90;;;;;;5070972;28;20184;-82
2022/07/12 11:33:25;;;;;;;0.50;0.50;;;27.80;99.90;;;;;;5073508;28;20172;-81
2022/07/12 11:35:52;;;;;;;0.35;0.35;;;28.20;99.90;;;;;;5066630;28;20197;-81
2022/07/12 11:38:25;;;;;;;0.40;0.40;;;28.60;99.90;;;;;;5073790;28;20207;-80
2022/07/12 11:40:56;;;;;;;0.63;0.40;;;27.30;99.90;;;;;;5071331;28;20177;-79
2022/07/12 11:43:22;;;;;;;0.20;0.20;;;27.30;99.90;;;;;;5068401;28;20177;-79
2022/07/12 11:45:48;;;;;;;0.38;0.38;;;27.80;99.90;;;;;;5066887;28;20211;-80
2022/07/12 11:48:14;;;;;;;0.30;0.30;;;28.20;99.90;;;;;;5071773;28;20201;-80
2022/07/12 11:50:44;;;;;;;0.32;0.30;;;28.10;99.90;;;;;;5069229;28;20635;-79
2022/07/12 11:53:22;;;;;;;0.22;0.22;;;28.50;99.90;;;;;;5067404;28;20640;-79
2022/07/12 11:55:50;;;;;;;0.30;0.30;;;28.90;99.90;;;;;;5073238;28;20383;-79
2022/07/12 11:58:17;;;;;;;0.60;0.60;;;29.10;99.90;;;;;;5070038;28;20207;-79
2022/07/12 12:00:44;;;;;;;0.20;0.20;;;28.80;99.90;;;;;;5071319;28;20184;-80
2022/07/12 12:03:12;;;;;;;0.32;0.32;;;28.00;99.90;;;;;;5070597;28;20605;-80
2022/07/12 12:05:37;;;;;;;0.38;0.38;;;28.10;99.90;;;;;;5070961;28;20191;-80
2022/07/12 12:08:07;;;;;;;0.55;0.40;;;28.60;99.90;;;;;;5066951;28;20604;-80
2022/07/12 12:10:33;;;;;;;0.50;0.50;;;28.90;99.90;;;;;;5070593;28;20178;-80
2022/07/12 12:13:01;;;;;;;0.90;0.47;;;29.20;99.90;;;;;;5072285;28;20288;-80
2022/07/12 12:15:29;;;;;;;0.30;0.30;;;29.40;99.90;;;;;;5076224;28;20338;-80
2022/07/12 12:18:07;;;;;;;0.30;0.30;;;29.50;99.90;;;;;;5066732;28;20563;-80
2022/07/12 12:20:38;;;;;;;0.40;0.40;;;29.60;99.90;;;;;;5070304;28;20173;-81
2022/07/12 12:23:15;;;;;;;0.22;0.22;;;29.70;99.90;;;;;;5078646;28;20219;-79
2022/07/12 12:25:43;;;;;;;0.40;0.40;;;29.20;99.90;;;;;;5061189;28;20249;-79
2022/07/12 12:28:10;;;;;;;0.47;0.30;;;29.40;99.90;;;;;;5057288;28;20207;-79
2022/07/12 12:30:49;;;;;;;0.32;0.32;;;29.70;99.90;;;;;;5096756;28;20181;-82
2022/07/12 12:33:34;;;;;;;0.22;0.22;;;29.90;99.90;;;;;;5079223;28;20173;-82
2022/07/12 12:36:18;;;;;;;0.30;0.30;;;29.90;99.90;;;;;;5068611;28;20201;-82
2022/07/12 12:38:45;;;;;;;3.03;0.77;;;29.70;99.90;;;;;;5081613;28;20246;-80
2022/07/12 12:41:11;;;;;;;0.32;0.32;;;29.90;99.90;;;;;;5087993;28;20177;-85
2022/07/12 12:43:37;;;;;;;0.50;0.50;;;29.80;99.90;;;;;;5058399;28;20260;-81
2022/07/12 12:46:03;;;;;;;0.30;0.30;;;29.90;99.90;;;;;;5073842;28;20673;-81
2022/07/12 12:48:31;;;;;;;0.40;0.40;;;30.00;99.90;;;;;;5071139;28;20207;-80
2022/07/12 12:51:16;;;;;;;0.30;0.30;;;30.00;99.90;;;;;;5081785;28;20288;-79
2022/07/12 12:53:42;;;;;;;0.70;0.63;;;30.20;99.90;;;;;;5067706;28;20275;-79
2022/07/12 12:56:11;;;;;;;0.38;0.38;;;30.00;99.90;;;;;;5081834;28;20308;-79
2022/07/12 12:58:37;;;;;;;0.40;0.40;;;28.70;99.90;;;;;;5075785;28;20177;-80